^^
Meteo Knjazevac Station Historical Data
Daily Summary for January 23, 2022 Units:  Metric    English   Both
Daily Weekly Monthly Yearly Custom
  High: Low: Average:
Temperature: -1.3 °C -4.6 °C -2.9 °C
Dew Point: -4.7 °C -6.9 °C -5.9 °C
Humidity: 86% 75% 80%
Wind Speed: 20.9km/h 0km/h 8.2km/h
Wind Gust: 33.8km/h - -
Wind- - West
Pressure: 1027 hPa 1024.6 hPa -
Precipitation: 0 mm    
Historical Graphs
 
 
Tabular Data for January 23, 2022
Time Temperature Dew Point Pressure Wind Wind Speed Wind Gust Humidity Rainfall Rate (Hourly) solar Conditions
00:00 -3.3 °C -5.8 °C 1024.6 hPa West 4.8 km/h 14.5 km/h 83% 0 mm 0 W/m2
00:10 -3.1 °C -5.9 °C 1024.6 hPa West 8 km/h 12.9 km/h 81% 0 mm 0 W/m2
00:20 -3 °C -5.8 °C 1024.9 hPa West 4.8 km/h 11.3 km/h 81% 0 mm 0 W/m2
00:30 -3 °C -5.9 °C 1024.6 hPa West 8 km/h 11.3 km/h 80% 0 mm 0 W/m2
00:40 -2.9 °C -5.7 °C 1024.9 hPa West 9.7 km/h 12.9 km/h 81% 0 mm 0 W/m2
00:50 -2.9 °C -5.7 °C 1024.9 hPa West 8 km/h 14.5 km/h 81% 0 mm 0 W/m2
01:00 -2.9 °C -5.7 °C 1024.9 hPa West 8 km/h 12.9 km/h 81% 0 mm 0 W/m2
01:10 -2.9 °C -5.7 °C 1024.9 hPa West 8 km/h 11.3 km/h 81% 0 mm 0 W/m2
01:20 -3 °C -5.8 °C 1024.9 hPa West 11.3 km/h 14.5 km/h 81% 0 mm 0 W/m2
01:30 -3 °C -5.8 °C 1024.6 hPa WNW 9.7 km/h 14.5 km/h 81% 0 mm 0 W/m2
01:40 -3.1 °C -5.9 °C 1024.9 hPa West 9.7 km/h 12.9 km/h 81% 0 mm 0 W/m2
01:50 -3.3 °C -6.1 °C 1024.9 hPa West 8 km/h 12.9 km/h 81% 0 mm 0 W/m2
02:00 -3.4 °C -6.2 °C 1024.9 hPa West 4.8 km/h 11.3 km/h 81% 0 mm 0 W/m2
02:10 -3.5 °C -6.3 °C 1024.9 hPa West 8 km/h 9.7 km/h 81% 0 mm 0 W/m2
02:20 -3.6 °C -6.4 °C 1024.9 hPa West 4.8 km/h 11.3 km/h 81% 0 mm 0 W/m2
02:30 -3.6 °C -6.4 °C 1024.9 hPa West 9.7 km/h 16.1 km/h 81% 0 mm 0 W/m2
02:40 -3.6 °C -6.3 °C 1024.9 hPa WNW 8 km/h 16.1 km/h 81% 0 mm 0 W/m2
02:50 -3.6 °C -6.4 °C 1024.9 hPa West 9.7 km/h 14.5 km/h 81% 0 mm 0 W/m2
03:00 -3.6 °C -6.4 °C 1024.9 hPa West 8 km/h 14.5 km/h 81% 0 mm 0 W/m2
03:10 -3.7 °C -6.5 °C 1024.9 hPa West 8 km/h 11.3 km/h 81% 0 mm 0 W/m2
03:20 -3.6 °C -6.4 °C 1024.9 hPa WNW 8 km/h 16.1 km/h 81% 0 mm 0 W/m2
03:30 -3.6 °C -6.4 °C 1024.9 hPa WNW 8 km/h 14.5 km/h 81% 0 mm 0 W/m2
03:40 -3.7 °C -6.4 °C 1024.9 hPa West 8 km/h 12.9 km/h 81% 0 mm 0 W/m2
03:50 -3.8 °C -6.6 °C 1024.9 hPa West 4.8 km/h 11.3 km/h 81% 0 mm 0 W/m2
04:00 -3.8 °C -6.3 °C 1025.3 hPa WNW 8 km/h 11.3 km/h 83% 0 mm 0 W/m2
04:10 -3.8 °C -6.3 °C 1025.3 hPa WNW 1.6 km/h 12.9 km/h 83% 0 mm 0 W/m2
04:20 -3.7 °C -6 °C 1025.3 hPa WNW 8 km/h 11.3 km/h 84% 0 mm 0 W/m2
04:30 -3.7 °C -6.2 °C 1025.3 hPa West 1.6 km/h 9.7 km/h 83% 0 mm 0 W/m2
04:40 -4 °C -6.4 °C 1025.3 hPa SSW 1.6 km/h 9.7 km/h 83% 0 mm 0 W/m2
04:50 -4.5 °C -6.9 °C 1025.3 hPa South 1.6 km/h 8 km/h 83% 0 mm 0 W/m2
05:00 -4.6 °C -6.7 °C 1025.3 hPa NW 3.2 km/h 9.7 km/h 85% 0 mm 0 W/m2
05:10 -4.3 °C -6.4 °C 1025.3 hPa WNW 4.8 km/h 12.9 km/h 85% 0 mm 0 W/m2
05:20 -4.1 °C -6.2 °C 1025.3 hPa West 3.2 km/h 12.9 km/h 85% 0 mm 0 W/m2
05:30 -3.8 °C -6.2 °C 1025.3 hPa WSW 4.8 km/h 19.3 km/h 84% 0 mm 0 W/m2
05:40 -3.8 °C -6.1 °C 1025.3 hPa WSW 4.8 km/h 12.9 km/h 84% 0 mm 0 W/m2
05:50 -3.9 °C -6.3 °C 1025.6 hPa WSW 8 km/h 11.3 km/h 84% 0 mm 0 W/m2
06:00 -4.1 °C -6.6 °C 1025.6 hPa WSW 8 km/h 12.9 km/h 83% 0 mm 0 W/m2
06:10 -4.2 °C -6.5 °C 1025.6 hPa WSW 8 km/h 14.5 km/h 84% 0 mm 0 W/m2
06:20 -4 °C -6.4 °C 1025.6 hPa WSW 11.3 km/h 19.3 km/h 83% 0 mm 0 W/m2
06:30 -4.1 °C -6.6 °C 1025.6 hPa WSW 11.3 km/h 19.3 km/h 83% 0 mm 0 W/m2
06:40 -4.1 °C -6.6 °C 1025.6 hPa West 9.7 km/h 19.3 km/h 83% 0 mm 0 W/m2
06:50 -4.1 °C -6.6 °C 1026 hPa WSW 9.7 km/h 19.3 km/h 83% 0 mm 0 W/m2
07:00 -4.2 °C -6.7 °C 1026 hPa West 9.7 km/h 19.3 km/h 83% 0 mm 4 W/m2
07:10 -4.2 °C -6.7 °C 1026 hPa West 9.7 km/h 19.3 km/h 83% 0 mm 4 W/m2
07:20 -4.2 °C -6.7 °C 1026.3 hPa West 11.3 km/h 17.7 km/h 83% 0 mm 18 W/m2
07:30 -4.1 °C -6.6 °C 1026.3 hPa West 11.3 km/h 19.3 km/h 83% 0 mm 21 W/m2
07:40 -4 °C -6.4 °C 1026.3 hPa West 9.7 km/h 17.7 km/h 83% 0 mm 24 W/m2
07:50 -4 °C -6.4 °C 1026.3 hPa West 9.7 km/h 16.1 km/h 83% 0 mm 29 W/m2
08:00 -3.8 °C -6.4 °C 1026.3 hPa West 11.3 km/h 16.1 km/h 82% 0 mm 38 W/m2
08:10 -3.7 °C -6.5 °C 1026.3 hPa WSW 11.3 km/h 20.9 km/h 81% 0 mm 37 W/m2
08:20 -3.6 °C -6.4 °C 1026.3 hPa WSW 9.7 km/h 16.1 km/h 81% 0 mm 45 W/m2
08:30 -3.5 °C -6.3 °C 1026.3 hPa WSW 9.7 km/h 16.1 km/h 81% 0 mm 49 W/m2
08:40 -3.4 °C -6.2 °C 1026.3 hPa West 8 km/h 16.1 km/h 81% 0 mm 52 W/m2
08:50 -3.3 °C -6.1 °C 1026.3 hPa West 9.7 km/h 16.1 km/h 81% 0 mm 57 W/m2
09:00 -3.2 °C -6.2 °C 1026.3 hPa West 9.7 km/h 19.3 km/h 80% 0 mm 55 W/m2
09:10 -3.1 °C -6.1 °C 1026.3 hPa West 8 km/h 16.1 km/h 80% 0 mm 70 W/m2
09:20 -3 °C -5.9 °C 1026.6 hPa WSW 8 km/h 14.5 km/h 80% 0 mm 68 W/m2
09:30 -2.9 °C -5.9 °C 1026.3 hPa West 8 km/h 14.5 km/h 80% 0 mm 80 W/m2
09:40 -2.8 °C -5.9 °C 1026.6 hPa West 9.7 km/h 20.9 km/h 79% 0 mm 78 W/m2
09:50 -2.7 °C -5.8 °C 1026.6 hPa West 11.3 km/h 16.1 km/h 79% 0 mm 85 W/m2
10:00 -2.6 °C -5.7 °C 1026.6 hPa West 8 km/h 14.5 km/h 79% 0 mm 89 W/m2
10:10 -2.5 °C -5.7 °C 1026.6 hPa West 11.3 km/h 19.3 km/h 79% 0 mm 102 W/m2
10:20 -2.5 °C -5.7 °C 1026.6 hPa West 8 km/h 17.7 km/h 79% 0 mm 102 W/m2
10:30 -2.5 °C -5.7 °C 1026.6 hPa West 8 km/h 19.3 km/h 79% 0 mm 102 W/m2
10:40 -2.4 °C -5.6 °C 1026.6 hPa West 11.3 km/h 20.9 km/h 79% 0 mm 111 W/m2
10:50 -2.4 °C -5.6 °C 1026.3 hPa West 11.3 km/h 20.9 km/h 79% 0 mm 125 W/m2
11:00 -2.3 °C -5.4 °C 1026.3 hPa West 11.3 km/h 20.9 km/h 79% 0 mm 172 W/m2
11:10 -2.2 °C -5.3 °C 1026.3 hPa West 14.5 km/h 22.5 km/h 79% 0 mm 232 W/m2
11:20 -2 °C -5.2 °C 1026 hPa West 11.3 km/h 22.5 km/h 79% 0 mm 243 W/m2
11:30 -1.8 °C -5 °C 1026 hPa West 9.7 km/h 20.9 km/h 79% 0 mm 248 W/m2
11:40 -1.6 °C -4.9 °C 1026 hPa WSW 9.7 km/h 19.3 km/h 78% 0 mm 280 W/m2
11:50 -1.4 °C -4.7 °C 1026 hPa WSW 14.5 km/h 24.1 km/h 78% 0 mm 275 W/m2
12:00 -1.4 °C -4.9 °C 1025.6 hPa WSW 14.5 km/h 24.1 km/h 77% 0 mm 255 W/m2
12:10 -1.3 °C -4.8 °C 1025.6 hPa WSW 19.3 km/h 29 km/h 77% 0 mm 203 W/m2
12:20 -1.3 °C -5.2 °C 1025.3 hPa WSW 20.9 km/h 29 km/h 75% 0 mm 155 W/m2
12:30 -1.5 °C -5.3 °C 1025.3 hPa WSW 19.3 km/h 32.2 km/h 75% 0 mm 115 W/m2
12:40 -1.6 °C -5.4 °C 1025.3 hPa WSW 19.3 km/h 32.2 km/h 75% 0 mm 99 W/m2
12:50 -1.8 °C -5.6 °C 1025.3 hPa West 16.1 km/h 32.2 km/h 75% 0 mm 116 W/m2
13:00 -1.8 °C -5.3 °C 1025.3 hPa West 12.9 km/h 33.8 km/h 77% 0 mm 122 W/m2
13:10 -1.8 °C -5.7 °C 1025.6 hPa West 20.9 km/h 32.2 km/h 75% 0 mm 111 W/m2
13:20 -1.9 °C -5.7 °C 1025.3 hPa WSW 19.3 km/h 29 km/h 75% 0 mm 97 W/m2
13:30 -1.9 °C -5.4 °C 1025.3 hPa WSW 19.3 km/h 32.2 km/h 77% 0 mm 97 W/m2
13:40 -1.9 °C -5.4 °C 1025.3 hPa WSW 14.5 km/h 24.1 km/h 77% 0 mm 86 W/m2
13:50 -1.9 °C -5.4 °C 1025.3 hPa WSW 9.7 km/h 25.7 km/h 77% 0 mm 76 W/m2
14:00 -1.9 °C -5.6 °C 1025.6 hPa West 8 km/h 12.9 km/h 76% 0 mm 64 W/m2
14:10 -1.8 °C -5.7 °C 1025.3 hPa West 4.8 km/h 12.9 km/h 75% 0 mm 71 W/m2
14:20 -1.7 °C -5.6 °C 1025.3 hPa West 8 km/h 14.5 km/h 75% 0 mm 77 W/m2
14:30 -1.8 °C -5.7 °C 1025.6 hPa West 16.1 km/h 22.5 km/h 75% 0 mm 65 W/m2
14:40 -1.9 °C -5.7 °C 1025.6 hPa West 14.5 km/h 27.4 km/h 75% 0 mm 61 W/m2
14:50 -1.9 °C -5.8 °C 1025.3 hPa West 11.3 km/h 22.5 km/h 75% 0 mm 50 W/m2
15:00 -1.9 °C -5.4 °C 1025.6 hPa West 11.3 km/h 20.9 km/h 77% 0 mm 48 W/m2
15:10 -2 °C -5.5 °C 1025.6 hPa West 11.3 km/h 20.9 km/h 77% 0 mm 71 W/m2
15:20 -2 °C -5.5 °C 1025.6 hPa West 11.3 km/h 19.3 km/h 77% 0 mm 65 W/m2
15:30 -1.9 °C -5.4 °C 1025.6 hPa West 9.7 km/h 17.7 km/h 77% 0 mm 48 W/m2
15:40 -1.9 °C -5.4 °C 1025.6 hPa West 8 km/h 14.5 km/h 77% 0 mm 28 W/m2
15:50 -2 °C -5.5 °C 1025.6 hPa West 8 km/h 16.1 km/h 77% 0 mm 20 W/m2
16:00 -2 °C -5.5 °C 1025.6 hPa West 4.8 km/h 19.3 km/h 77% 0 mm 15 W/m2
16:10 -2.1 °C -5.6 °C 1025.6 hPa West 4.8 km/h 19.3 km/h 77% 0 mm 5 W/m2
16:20 -2.2 °C -5.7 °C 1025.6 hPa West 9.7 km/h 16.1 km/h 77% 0 mm 5 W/m2
16:30 -2.2 °C -5.7 °C 1025.6 hPa WSW 4.8 km/h 14.5 km/h 77% 0 mm 0 W/m2
16:40 -2.3 °C -5.6 °C 1025.6 hPa WSW 8 km/h 19.3 km/h 78% 0 mm 0 W/m2
16:50 -2.4 °C -5.9 °C 1026 hPa WSW 11.3 km/h 19.3 km/h 77% 0 mm 0 W/m2
17:00 -2.4 °C -5.9 °C 1026 hPa WSW 9.7 km/h 16.1 km/h 77% 0 mm 0 W/m2
17:10 -2.5 °C -5.8 °C 1026 hPa WSW 9.7 km/h 14.5 km/h 78% 0 mm 0 W/m2
17:20 -2.6 °C -5.9 °C 1026 hPa WSW 9.7 km/h 14.5 km/h 78% 0 mm 0 W/m2
17:30 -2.6 °C -5.9 °C 1025.6 hPa WSW 9.7 km/h 12.9 km/h 78% 0 mm 0 W/m2
17:40 -2.7 °C -6 °C 1025.6 hPa WSW 9.7 km/h 16.1 km/h 78% 0 mm 0 W/m2
17:50 -2.8 °C -6.1 °C 1026 hPa WSW 8 km/h 12.9 km/h 78% 0 mm 0 W/m2
18:00 -2.9 °C -6.2 °C 1026 hPa WSW 8 km/h 12.9 km/h 78% 0 mm 0 W/m2
18:10 -2.8 °C -5.9 °C 1026 hPa WSW 8 km/h 11.3 km/h 79% 0 mm 0 W/m2
18:20 -2.8 °C -5.9 °C 1026 hPa WSW 9.7 km/h 14.5 km/h 79% 0 mm 0 W/m2
18:30 -2.9 °C -6 °C 1026 hPa WSW 9.7 km/h 12.9 km/h 79% 0 mm 0 W/m2
18:40 -2.9 °C -6.1 °C 1026 hPa WSW 8 km/h 12.9 km/h 79% 0 mm 0 W/m2
18:50 -2.9 °C -6.1 °C 1026 hPa WSW 8 km/h 12.9 km/h 79% 0 mm 0 W/m2
19:00 -2.9 °C -6.1 °C 1026.3 hPa WSW 4.8 km/h 11.3 km/h 79% 0 mm 0 W/m2
19:10 -2.9 °C -6.1 °C 1026.3 hPa WSW 4.8 km/h 11.3 km/h 79% 0 mm 0 W/m2
19:20 -2.9 °C -6.1 °C 1026.3 hPa WSW 4.8 km/h 12.9 km/h 79% 0 mm 0 W/m2
19:30 -2.9 °C -6.1 °C 1026.3 hPa West 4.8 km/h 9.7 km/h 79% 0 mm 0 W/m2
19:40 -2.9 °C -6.1 °C 1026.3 hPa West 1.6 km/h 8 km/h 79% 0 mm 0 W/m2
19:50 -2.9 °C -6.1 °C 1026.3 hPa WSW 1.6 km/h 4.8 km/h 79% 0 mm 0 W/m2
20:00 -2.9 °C -6.1 °C 1026.3 hPa WSW 3.2 km/h 4.8 km/h 79% 0 mm 0 W/m2
20:10 -2.9 °C -6.1 °C 1026.3 hPa WSW 1.6 km/h 3.2 km/h 79% 0 mm 0 W/m2
20:20 -2.8 °C -5.9 °C 1026.3 hPa West 3.2 km/h 4.8 km/h 79% 0 mm 0 W/m2
20:30 -2.9 °C -6 °C 1026.3 hPa WSW 1.6 km/h 4.8 km/h 79% 0 mm 0 W/m2
20:40 -2.8 °C -5.9 °C 1026.3 hPa West 1.6 km/h 9.7 km/h 79% 0 mm 0 W/m2
20:50 -2.7 °C -6.1 °C 1026.3 hPa West 3.2 km/h 8 km/h 78% 0 mm 0 W/m2
21:00 -2.7 °C -6 °C 1026.3 hPa West 4.8 km/h 8 km/h 78% 0 mm 0 W/m2
21:10 -2.7 °C -6 °C 1026.3 hPa West 3.2 km/h 4.8 km/h 78% 0 mm 0 W/m2
21:20 -2.6 °C -5.9 °C 1026.3 hPa West 3.2 km/h 6.4 km/h 78% 0 mm 0 W/m2
21:30 -2.6 °C -5.9 °C 1026.3 hPa West 4.8 km/h 9.7 km/h 78% 0 mm 0 W/m2
21:40 -2.6 °C -5.9 °C 1026.3 hPa WNW 4.8 km/h 9.7 km/h 78% 0 mm 0 W/m2
21:50 -2.6 °C -5.7 °C 1026.3 hPa WNW 4.8 km/h 9.7 km/h 79% 0 mm 0 W/m2
22:00 -2.6 °C -5.7 °C 1026.3 hPa WNW 4.8 km/h 9.7 km/h 79% 0 mm 0 W/m2
22:10 -2.6 °C -5.7 °C 1026.3 hPa WNW 4.8 km/h 8 km/h 79% 0 mm 0 W/m2
22:20 -2.6 °C -5.7 °C 1026.3 hPa WNW 3.2 km/h 6.4 km/h 79% 0 mm 0 W/m2
22:30 -2.7 °C -5.8 °C 1026.6 hPa West 3.2 km/h 4.8 km/h 79% 0 mm 0 W/m2
22:40 -2.7 °C -5.8 °C 1026.6 hPa Calm   3.2 km/h 79% 0 mm 0 W/m2
22:50 -2.7 °C -5.7 °C 1026.6 hPa Calm   3.2 km/h 80% 0 mm 0 W/m2
23:00 -2.7 °C -5.7 °C 1026.6 hPa Calm   3.2 km/h 80% 0 mm 0 W/m2
23:10 -2.7 °C -5.7 °C 1026.6 hPa NW 3.2 km/h 4.8 km/h 80% 0 mm 0 W/m2
23:20 -2.7 °C -5.7 °C 1026.6 hPa NW 3.2 km/h 4.8 km/h 80% 0 mm 0 W/m2
23:30 -2.7 °C -5.7 °C 1026.6 hPa North 4.8 km/h 8 km/h 80% 0 mm 0 W/m2
23:40 -2.7 °C -5.2 °C 1026.6 hPa North 4.8 km/h 11.3 km/h 83% 0 mm 0 W/m2
23:50 -2.8 °C -4.8 °C 1027 hPa North 1.6 km/h 9.7 km/h 86% 0 mm 0 W/m2
Knjazevac, Serbia
Compliments of Weather Underground - 2 mb